Time;durP1;ratioP1;P1;durP2;ratioP2;P2;SDS_P1;SDS_P2;PMS_P1;PMS_P2;Temp;Humidity;BMP_temperature;BMP_pressure;BME280_temperature;BME280_humidity;BME280_pressure;Samples;Min_cycle;Max_cycle;Signal;HPM_P1;HPM_P2
2022/10/25 00:04:13;;;;;;;2.28;0.55;;;;;;;;;;10462915;28;20360;-78
2022/10/25 00:09:14;;;;;;;0.60;0.35;;;;;;;;;;10462594;28;20286;-77
2022/10/25 00:14:17;;;;;;;3.50;0.50;;;;;;;;;;10461785;28;20210;-78
2022/10/25 00:19:19;;;;;;;3.25;0.60;;;;;;;;;;10462670;28;20673;-78
2022/10/25 00:24:20;;;;;;;2.78;0.80;;;;;;;;;;10463921;28;20198;-78
2022/10/25 00:29:21;;;;;;;3.95;0.30;;;;;;;;;;10464309;28;20221;-77
2022/10/25 00:34:22;;;;;;;1.13;0.20;;;;;;;;;;10460779;28;20800;-78
2022/10/25 00:39:23;;;;;;;0.93;0.30;;;;;;;;;;10462000;28;20221;-78
2022/10/25 00:44:50;;;;;;;0.85;0.20;;;;;;;;;;10462091;28;20225;-78
2022/10/25 00:49:58;;;;;;;0.17;0.17;;;;;;;;;;10459616;28;20589;-77
2022/10/25 00:54:59;;;;;;;1.23;0.13;;;;;;;;;;10459889;28;20219;-78
2022/10/25 01:00:02;;;;;;;0.93;0.10;;;;;;;;;;10458662;28;21075;-78
2022/10/25 01:05:03;;;;;;;1.90;0.20;;;;;;;;;;10455064;28;20222;-78
2022/10/25 01:10:05;;;;;;;0.05;0.05;;;;;;;;;;10456589;28;20194;-77
2022/10/25 01:15:06;;;;;;;0.10;0.10;;;;;;;;;;10453668;28;20559;-78
2022/10/25 01:20:32;;;;;;;0.28;0.10;;;;;;;;;;10460494;28;20244;-78
2022/10/25 01:25:53;;;;;;;3.35;0.17;;;;;;;;;;10456217;28;20202;-77
2022/10/25 01:31:13;;;;;;;0.10;0.10;;;;;;;;;;10459024;28;20594;-77
2022/10/25 01:36:20;;;;;;;1.08;0.32;;;;;;;;;;10456271;28;20764;-78
2022/10/25 01:41:21;;;;;;;0.10;0.10;;;;;;;;;;10460254;28;20214;-77
2022/10/25 01:46:27;;;;;;;0.20;0.20;;;;;;;;;;10456623;28;20234;-77
2022/10/25 01:51:28;;;;;;;3.45;0.15;;;;;;;;;;10450495;28;20281;-77
2022/10/25 01:56:33;;;;;;;0.15;0.13;;;;;;;;;;10457568;28;20218;-77
2022/10/25 02:01:36;;;;;;;0.20;0.20;;;;;;;;;;10455312;28;20216;-77
2022/10/25 02:06:48;;;;;;;0.55;0.13;;;;;;;;;;10458336;28;20190;-77
2022/10/25 02:11:50;;;;;;;0.10;0.10;;;;;;;;;;10458264;28;20210;-76
2022/10/25 02:17:03;;;;;;;0.20;0.20;;;;;;;;;;10457063;28;20206;-77
2022/10/25 02:22:07;;;;;;;0.15;0.15;;;;;;;;;;10458371;28;22143;-77
2022/10/25 02:27:10;;;;;;;0.63;0.13;;;;;;;;;;10459005;28;20217;-77
2022/10/25 02:32:11;;;;;;;0.20;0.20;;;;;;;;;;10453660;28;20229;-77
2022/10/25 02:37:12;;;;;;;0.20;0.20;;;;;;;;;;10461891;28;20287;-77
2022/10/25 02:42:13;;;;;;;0.30;0.30;;;;;;;;;;10459340;28;20257;-78
2022/10/25 02:47:14;;;;;;;0.25;0.25;;;;;;;;;;10450186;28;20250;-78
2022/10/25 02:52:15;;;;;;;0.30;0.20;;;;;;;;;;10460477;28;20190;-78
2022/10/25 02:57:17;;;;;;;0.30;0.30;;;;;;;;;;10456416;28;20588;-78
2022/10/25 03:02:18;;;;;;;0.22;0.22;;;;;;;;;;10452382;28;20207;-79
2022/10/25 03:07:19;;;;;;;2.90;0.35;;;;;;;;;;10450877;28;20193;-78
2022/10/25 03:12:20;;;;;;;0.30;0.30;;;;;;;;;;10461883;28;20221;-78
2022/10/25 03:17:21;;;;;;;0.10;0.10;;;;;;;;;;10464626;28;20222;-77
2022/10/25 03:22:22;;;;;;;1.33;0.20;;;;;;;;;;10467880;28;20217;-79
2022/10/25 03:27:23;;;;;;;3.53;0.80;;;;;;;;;;10467568;28;20194;-77
2022/10/25 03:32:24;;;;;;;0.30;0.22;;;;;;;;;;10462537;28;20218;-77
2022/10/25 03:37:25;;;;;;;0.20;0.20;;;;;;;;;;10463310;28;20692;-77
2022/10/25 03:42:26;;;;;;;0.20;0.20;;;;;;;;;;10464164;28;20241;-77
2022/10/25 03:47:27;;;;;;;0.38;0.30;;;;;;;;;;10461591;28;20190;-77
2022/10/25 03:52:28;;;;;;;1.52;0.17;;;;;;;;;;10462162;28;20288;-77
2022/10/25 03:57:30;;;;;;;1.33;0.28;;;;;;;;;;10463406;28;20217;-77
2022/10/25 04:02:31;;;;;;;4.15;0.43;;;;;;;;;;10460383;28;20680;-77
2022/10/25 04:07:32;;;;;;;1.15;0.40;;;;;;;;;;10459868;28;20193;-76
2022/10/25 04:12:33;;;;;;;1.13;0.30;;;;;;;;;;10464053;28;20223;-76
2022/10/25 04:17:34;;;;;;;0.70;0.25;;;;;;;;;;10461608;28;20264;-77
2022/10/25 04:22:35;;;;;;;0.30;0.22;;;;;;;;;;10457198;28;20194;-77
2022/10/25 04:27:36;;;;;;;3.10;0.50;;;;;;;;;;10457649;28;20256;-77
2022/10/25 04:32:37;;;;;;;0.98;0.70;;;;;;;;;;10455958;28;20214;-76
2022/10/25 04:37:38;;;;;;;4.57;0.75;;;;;;;;;;10456240;28;20894;-77
2022/10/25 04:42:40;;;;;;;1.30;0.50;;;;;;;;;;10458960;28;20214;-78
2022/10/25 04:47:41;;;;;;;0.95;0.73;;;;;;;;;;10466038;28;20225;-77
2022/10/25 04:52:42;;;;;;;0.68;0.52;;;;;;;;;;10462615;28;20189;-77
2022/10/25 04:57:43;;;;;;;1.20;0.50;;;;;;;;;;10461122;28;20223;-76
2022/10/25 05:02:44;;;;;;;4.30;0.65;;;;;;;;;;10459701;28;20214;-76
2022/10/25 05:07:45;;;;;;;0.40;0.40;;;;;;;;;;10458799;28;20640;-76
2022/10/25 05:12:46;;;;;;;1.48;0.40;;;;;;;;;;10460397;28;20222;-75
2022/10/25 05:17:47;;;;;;;1.63;0.30;;;;;;;;;;10460918;28;20584;-75
2022/10/25 05:22:48;;;;;;;1.77;0.47;;;;;;;;;;10460872;28;20273;-75
2022/10/25 05:27:49;;;;;;;2.17;0.43;;;;;;;;;;10458274;28;20250;-76
2022/10/25 05:32:51;;;;;;;2.65;0.50;;;;;;;;;;10455369;28;20221;-75
2022/10/25 05:37:52;;;;;;;0.98;0.40;;;;;;;;;;10453086;28;20209;-74
2022/10/25 05:42:53;;;;;;;3.42;0.65;;;;;;;;;;10459429;28;20214;-74
2022/10/25 05:47:54;;;;;;;4.22;0.70;;;;;;;;;;10459349;28;20265;-73
2022/10/25 05:52:55;;;;;;;1.23;0.70;;;;;;;;;;10457041;28;20995;-73
2022/10/25 05:57:56;;;;;;;0.73;0.50;;;;;;;;;;10458422;28;20885;-74
2022/10/25 06:02:59;;;;;;;1.70;0.70;;;;;;;;;;10454641;28;20580;-74
2022/10/25 06:08:01;;;;;;;1.88;0.60;;;;;;;;;;10454709;28;20203;-73
2022/10/25 06:13:02;;;;;;;0.80;0.40;;;;;;;;;;10462581;28;20937;-74
2022/10/25 06:18:03;;;;;;;2.92;0.60;;;;;;;;;;10463721;28;20214;-73
2022/10/25 06:23:04;;;;;;;1.27;0.90;;;;;;;;;;10458801;28;20194;-74
2022/10/25 06:28:08;;;;;;;0.40;0.40;;;;;;;;;;10460203;28;20199;-74
2022/10/25 06:33:09;;;;;;;2.78;0.80;;;;;;;;;;10455368;28;20225;-74
2022/10/25 06:38:10;;;;;;;0.75;0.55;;;;;;;;;;10462414;28;20209;-73
2022/10/25 06:43:11;;;;;;;2.28;0.40;;;;;;;;;;10466373;28;20230;-73
2022/10/25 06:48:12;;;;;;;5.95;0.88;;;;;;;;;;10460918;28;20234;-74
2022/10/25 06:53:13;;;;;;;0.88;0.70;;;;;;;;;;10467032;28;20277;-74
2022/10/25 06:58:14;;;;;;;1.77;0.77;;;;;;;;;;10467642;28;20221;-74
2022/10/25 07:03:15;;;;;;;0.70;0.70;;;;;;;;;;10459331;28;20222;-73
2022/10/25 07:08:16;;;;;;;2.67;0.75;;;;;;;;;;10464681;28;20371;-73
2022/10/25 07:13:18;;;;;;;0.93;0.70;;;;;;;;;;10463369;28;20210;-74
2022/10/25 07:18:19;;;;;;;1.45;0.80;;;;;;;;;;10464458;28;20226;-75
2022/10/25 07:23:20;;;;;;;1.20;0.43;;;;;;;;;;10463004;28;20250;-73
2022/10/25 07:28:21;;;;;;;1.65;0.60;;;;;;;;;;10465456;28;20189;-72
2022/10/25 07:33:22;;;;;;;2.15;0.63;;;;;;;;;;10458981;28;20305;-75
2022/10/25 07:38:23;;;;;;;4.35;0.80;;;;;;;;;;10463883;28;20945;-75
2022/10/25 07:43:28;;;;;;;0.55;0.55;;;;;;;;;;10464766;28;20222;-76
2022/10/25 07:48:29;;;;;;;1.27;1.02;;;;;;;;;;10464224;28;20213;-75
2022/10/25 07:53:32;;;;;;;6.45;0.75;;;;;;;;;;10466468;28;20186;-74
2022/10/25 07:58:33;;;;;;;3.53;0.88;;;;;;;;;;10459043;28;20364;-73
2022/10/25 08:03:35;;;;;;;5.20;0.75;;;;;;;;;;10443117;28;20213;-75
2022/10/25 08:08:36;;;;;;;5.22;0.50;;;;;;;;;;10444086;28;20205;-74
2022/10/25 08:13:37;;;;;;;0.75;0.43;;;;;;;;;;10458273;28;20224;-76
2022/10/25 08:18:38;;;;;;;1.75;0.60;;;;;;;;;;10457982;28;20217;-75
2022/10/25 08:23:40;;;;;;;1.60;0.50;;;;;;;;;;10444076;28;20190;-75
2022/10/25 08:28:41;;;;;;;1.23;0.47;;;;;;;;;;10459432;28;20462;-76
2022/10/25 08:33:42;;;;;;;2.35;0.47;;;;;;;;;;10457914;28;20267;-75
2022/10/25 08:38:43;;;;;;;1.17;0.50;;;;;;;;;;10462773;28;20571;-77
2022/10/25 08:43:50;;;;;;;3.70;0.55;;;;;;;;;;10470989;28;20241;-77
2022/10/25 08:49:05;;;;;;;2.55;0.63;;;;;;;;;;10463422;28;20218;-75
2022/10/25 08:54:13;;;;;;;2.03;0.70;;;;;;;;;;10460536;28;20194;-78
2022/10/25 08:59:17;;;;;;;0.93;0.55;;;;;;;;;;10460443;28;20197;-77
2022/10/25 09:04:18;;;;;;;1.63;0.60;;;;;;;;;;10462717;28;20250;-78
2022/10/25 09:09:29;;;;;;;0.63;0.50;;;;;;;;;;10461078;28;20566;-77
2022/10/25 09:14:36;;;;;;;6.72;0.82;;;;;;;;;;10460337;28;20257;-78
2022/10/25 09:19:50;;;;;;;1.33;0.60;;;;;;;;;;10459845;28;20575;-78
2022/10/25 09:24:59;;;;;;;4.32;0.60;;;;;;;;;;10457728;28;20202;-78
2022/10/25 09:30:02;;;;;;;3.30;0.52;;;;;;;;;;10457111;28;20367;-78
2022/10/25 09:35:05;;;;;;;0.57;0.55;;;;;;;;;;10458518;28;20815;-78
2022/10/25 09:40:10;;;;;;;8.52;0.68;;;;;;;;;;10462180;28;20662;-77
2022/10/25 09:45:23;;;;;;;0.47;0.47;;;;;;;;;;10457134;28;20388;-78
2022/10/25 09:50:27;;;;;;;3.63;0.85;;;;;;;;;;10461482;28;20183;-79
2022/10/25 09:55:38;;;;;;;2.00;0.40;;;;;;;;;;10459256;28;20210;-76
2022/10/25 10:00:40;;;;;;;2.85;0.50;;;;;;;;;;10453784;28;20710;-76
2022/10/25 10:05:44;;;;;;;1.23;0.52;;;;;;;;;;10456892;28;20277;-74
2022/10/25 10:10:47;;;;;;;9.07;0.70;;;;;;;;;;10454561;28;20286;-77
2022/10/25 10:15:53;;;;;;;2.75;0.55;;;;;;;;;;10456394;28;20653;-76
2022/10/25 10:21:00;;;;;;;1.30;0.47;;;;;;;;;;10465984;28;20186;-78
2022/10/25 10:26:03;;;;;;;4.05;0.70;;;;;;;;;;10472210;28;20206;-77
2022/10/25 10:31:07;;;;;;;2.72;0.60;;;;;;;;;;10464986;28;20213;-76
2022/10/25 10:36:27;;;;;;;2.15;0.50;;;;;;;;;;10466471;28;20221;-77
2022/10/25 10:41:29;;;;;;;0.40;0.40;;;;;;;;;;10467660;28;20209;-76
2022/10/25 10:46:30;;;;;;;1.75;0.50;;;;;;;;;;10463862;28;20221;-76
2022/10/25 10:51:36;;;;;;;1.55;0.60;;;;;;;;;;10464063;28;20194;-75
2022/10/25 10:56:37;;;;;;;0.95;0.60;;;;;;;;;;10462163;28;20213;-74
2022/10/25 11:01:38;;;;;;;0.65;0.55;;;;;;;;;;10459670;28;21056;-75
2022/10/25 11:06:39;;;;;;;1.08;0.60;;;;;;;;;;10461131;28;20199;-72
2022/10/25 11:11:41;;;;;;;1.85;0.60;;;;;;;;;;10457598;28;20308;-73
2022/10/25 11:17:00;;;;;;;1.92;0.50;;;;;;;;;;10456091;28;20221;-74
2022/10/25 11:22:13;;;;;;;0.70;0.40;;;;;;;;;;10465386;28;20291;-73
2022/10/25 11:27:24;;;;;;;1.50;0.50;;;;;;;;;;10435891;28;20287;-72
2022/10/25 11:32:31;;;;;;;4.72;0.50;;;;;;;;;;10456532;28;20314;-72
2022/10/25 11:37:41;;;;;;;1.40;0.60;;;;;;;;;;10455701;28;20222;-73
2022/10/25 11:42:42;;;;;;;0.40;0.40;;;;;;;;;;10460607;28;20293;-73
2022/10/25 11:48:00;;;;;;;2.75;0.60;;;;;;;;;;10456513;28;20203;-73
2022/10/25 11:53:11;;;;;;;1.65;0.50;;;;;;;;;;10462102;28;20182;-73
2022/10/25 11:58:18;;;;;;;2.17;0.65;;;;;;;;;;10456925;28;20226;-73
2022/10/25 12:03:19;;;;;;;3.08;0.50;;;;;;;;;;10457933;28;20316;-72
2022/10/25 12:08:27;;;;;;;0.55;0.30;;;;;;;;;;10456117;28;20630;-73
2022/10/25 12:13:38;;;;;;;0.95;0.30;;;;;;;;;;10456050;28;20273;-73
2022/10/25 12:18:47;;;;;;;0.70;0.40;;;;;;;;;;10457413;28;20594;-73
2022/10/25 12:23:50;;;;;;;1.35;0.52;;;;;;;;;;10455771;28;20280;-71
2022/10/25 12:28:51;;;;;;;0.75;0.40;;;;;;;;;;10456685;28;20191;-73
2022/10/25 12:33:52;;;;;;;1.10;0.30;;;;;;;;;;10457280;28;20432;-73
2022/10/25 12:38:55;;;;;;;0.40;0.40;;;;;;;;;;10453249;28;20324;-72
2022/10/25 12:43:56;;;;;;;2.65;0.45;;;;;;;;;;10456224;28;20227;-74
2022/10/25 12:49:05;;;;;;;1.27;0.50;;;;;;;;;;10456061;28;20833;-72
2022/10/25 12:54:25;;;;;;;4.00;0.57;;;;;;;;;;10457736;28;20336;-71
2022/10/25 12:59:29;;;;;;;1.85;0.60;;;;;;;;;;10453034;28;20206;-72
2022/10/25 13:04:30;;;;;;;0.82;0.60;;;;;;;;;;10458713;28;20729;-72
2022/10/25 13:09:32;;;;;;;1.13;0.70;;;;;;;;;;10460898;28;20191;-71
2022/10/25 13:14:33;;;;;;;2.10;0.70;;;;;;;;;;10457509;28;20773;-71
2022/10/25 13:19:34;;;;;;;3.15;0.60;;;;;;;;;;10450508;28;20249;-73
2022/10/25 13:24:38;;;;;;;0.77;0.70;;;;;;;;;;10455947;28;20206;-71
2022/10/25 13:29:46;;;;;;;0.65;0.60;;;;;;;;;;10458312;28;20346;-70
2022/10/25 13:34:47;;;;;;;3.45;0.80;;;;;;;;;;10455246;28;20747;-70
2022/10/25 13:39:53;;;;;;;2.28;0.77;;;;;;;;;;10459047;28;20655;-71
2022/10/25 13:45:03;;;;;;;0.88;0.63;;;;;;;;;;10461253;28;20341;-71
2022/10/25 13:50:32;;;;;;;1.83;0.88;;;;;;;;;;10455897;28;20195;-73
2022/10/25 13:55:37;;;;;;;3.05;0.70;;;;;;;;;;10458014;28;20218;-72
2022/10/25 14:00:40;;;;;;;1.02;0.80;;;;;;;;;;10457513;28;20300;-71
2022/10/25 14:05:53;;;;;;;3.85;0.93;;;;;;;;;;10457127;28;20183;-71
2022/10/25 14:10:55;;;;;;;3.25;0.80;;;;;;;;;;10457764;28;20209;-71
2022/10/25 14:15:58;;;;;;;0.88;0.88;;;;;;;;;;10452430;28;20218;-73
2022/10/25 14:21:01;;;;;;;3.42;0.93;;;;;;;;;;10454092;28;20294;-71
2022/10/25 14:26:05;;;;;;;1.48;0.75;;;;;;;;;;10459989;28;20190;-72
2022/10/25 14:31:06;;;;;;;1.13;1.00;;;;;;;;;;10457256;28;20213;-73
2022/10/25 14:36:07;;;;;;;3.50;0.90;;;;;;;;;;10456048;28;20214;-73
2022/10/25 14:41:12;;;;;;;1.98;0.70;;;;;;;;;;10451538;28;20242;-72
2022/10/25 14:46:14;;;;;;;0.98;0.82;;;;;;;;;;10455063;28;20285;-71
2022/10/25 14:51:20;;;;;;;1.25;1.00;;;;;;;;;;10454565;28;20785;-71
2022/10/25 14:56:38;;;;;;;1.35;0.80;;;;;;;;;;10453187;28;20227;-72
2022/10/25 15:01:39;;;;;;;1.58;0.85;;;;;;;;;;10448634;28;20209;-71
2022/10/25 15:06:42;;;;;;;0.60;0.60;;;;;;;;;;10463687;28;20287;-71
2022/10/25 15:12:01;;;;;;;1.65;1.15;;;;;;;;;;10464265;28;20218;-71
2022/10/25 15:17:04;;;;;;;2.22;0.85;;;;;;;;;;10463737;28;20214;-70
2022/10/25 15:22:09;;;;;;;1.50;0.90;;;;;;;;;;10464384;28;20241;-72
2022/10/25 15:27:30;;;;;;;1.63;1.00;;;;;;;;;;10468650;28;20187;-70
2022/10/25 15:32:56;;;;;;;1.00;0.80;;;;;;;;;;10456103;28;20623;-71
2022/10/25 15:37:57;;;;;;;3.25;0.90;;;;;;;;;;10458409;28;20214;-70
2022/10/25 15:42:58;;;;;;;2.47;0.88;;;;;;;;;;10467356;28;20226;-72
2022/10/25 15:48:00;;;;;;;1.20;1.20;;;;;;;;;;10461111;28;20191;-72
2022/10/25 15:53:01;;;;;;;7.10;1.58;;;;;;;;;;10456784;28;20256;-73
2022/10/25 15:58:03;;;;;;;3.75;1.48;;;;;;;;;;10457020;28;20256;-72
2022/10/25 16:03:05;;;;;;;1.00;1.00;;;;;;;;;;10462988;28;20229;-75
2022/10/25 16:08:07;;;;;;;1.00;1.00;;;;;;;;;;10458903;28;20372;-72
2022/10/25 16:13:23;;;;;;;8.38;4.97;;;;;;;;;;10459749;28;20300;-71
2022/10/25 16:18:24;;;;;;;4.75;4.07;;;;;;;;;;10464331;28;20632;-70
2022/10/25 16:23:26;;;;;;;4.75;3.20;;;;;;;;;;10461318;28;20310;-69
2022/10/25 16:28:27;;;;;;;1.77;1.67;;;;;;;;;;10458220;28;20199;-72
2022/10/25 16:33:28;;;;;;;1.75;1.63;;;;;;;;;;10455947;28;20219;-72
2022/10/25 16:38:29;;;;;;;3.45;1.88;;;;;;;;;;10456369;28;20238;-71
2022/10/25 16:43:30;;;;;;;1.90;1.83;;;;;;;;;;10457166;28;20242;-72
2022/10/25 16:48:31;;;;;;;4.88;1.77;;;;;;;;;;10458476;28;20209;-72
2022/10/25 16:53:32;;;;;;;1.88;1.77;;;;;;;;;;10457386;28;20190;-72
2022/10/25 16:58:34;;;;;;;3.17;1.73;;;;;;;;;;10462919;28;20935;-72
2022/10/25 17:03:35;;;;;;;3.78;3.47;;;;;;;;;;10458650;28;20214;-72
2022/10/25 17:08:36;;;;;;;2.22;2.00;;;;;;;;;;10451849;28;20314;-73
2022/10/25 17:13:37;;;;;;;3.92;1.83;;;;;;;;;;10452089;28;20206;-72
2022/10/25 17:18:38;;;;;;;4.00;1.65;;;;;;;;;;10454366;28;20884;-72
2022/10/25 17:23:39;;;;;;;3.50;2.40;;;;;;;;;;10451568;28;20303;-73
2022/10/25 17:28:41;;;;;;;3.75;1.52;;;;;;;;;;10458446;28;20217;-73
2022/10/25 17:33:42;;;;;;;2.83;1.45;;;;;;;;;;10450018;28;20991;-74
2022/10/25 17:38:43;;;;;;;4.60;1.10;;;;;;;;;;10457278;28;20236;-75
2022/10/25 17:43:44;;;;;;;3.95;1.08;;;;;;;;;;10454580;28;20261;-74
2022/10/25 17:48:46;;;;;;;2.90;0.90;;;;;;;;;;10457084;28;21027;-77
2022/10/25 17:53:54;;;;;;;1.08;0.80;;;;;;;;;;10458199;28;20206;-77
2022/10/25 17:58:56;;;;;;;1.08;0.95;;;;;;;;;;10461629;28;20690;-76
2022/10/25 18:03:57;;;;;;;0.95;0.85;;;;;;;;;;10444226;28;20214;-75
2022/10/25 18:08:59;;;;;;;3.15;1.70;;;;;;;;;;10454896;28;20194;-75
2022/10/25 18:14:00;;;;;;;1.10;1.10;;;;;;;;;;10449190;28;20218;-74
2022/10/25 18:19:03;;;;;;;2.70;2.33;;;;;;;;;;10459585;28;20274;-74
2022/10/25 18:24:04;;;;;;;1.70;1.60;;;;;;;;;;10457170;28;20187;-74
2022/10/25 18:29:05;;;;;;;1.85;1.75;;;;;;;;;;10457171;28;20791;-74
2022/10/25 18:34:07;;;;;;;1.83;1.73;;;;;;;;;;10452694;28;20214;-75
2022/10/25 18:39:08;;;;;;;2.85;2.70;;;;;;;;;;10457370;28;20218;-73
2022/10/25 18:44:09;;;;;;;2.33;2.22;;;;;;;;;;10461971;28;20657;-73
2022/10/25 18:49:14;;;;;;;2.67;2.53;;;;;;;;;;10461572;28;20194;-74
2022/10/25 18:54:15;;;;;;;2.00;1.85;;;;;;;;;;10464946;28;20197;-76
2022/10/25 18:59:16;;;;;;;2.58;2.38;;;;;;;;;;10472098;28;20918;-77
2022/10/25 19:04:17;;;;;;;3.47;2.20;;;;;;;;;;10464584;28;20221;-76
2022/10/25 19:09:19;;;;;;;2.85;2.58;;;;;;;;;;10464803;28;20205;-73
2022/10/25 19:14:20;;;;;;;3.95;2.30;;;;;;;;;;10462286;28;20292;-73
2022/10/25 19:19:21;;;;;;;4.20;2.40;;;;;;;;;;10457620;28;21089;-74
2022/10/25 19:24:22;;;;;;;3.03;2.30;;;;;;;;;;10466213;28;20768;-74
2022/10/25 19:29:23;;;;;;;2.17;2.08;;;;;;;;;;10466782;28;20191;-74
2022/10/25 19:34:24;;;;;;;2.85;2.50;;;;;;;;;;10461978;28;20222;-74
2022/10/25 19:39:26;;;;;;;2.60;2.40;;;;;;;;;;10462641;28;20186;-75
2022/10/25 19:44:27;;;;;;;3.70;3.30;;;;;;;;;;10460012;28;20237;-75
2022/10/25 19:49:28;;;;;;;2.03;2.00;;;;;;;;;;10468901;28;20190;-74
2022/10/25 19:54:29;;;;;;;1.73;1.73;;;;;;;;;;10464343;28;20289;-75
2022/10/25 19:59:30;;;;;;;5.75;1.75;;;;;;;;;;10461705;28;20194;-74
2022/10/25 20:04:31;;;;;;;3.42;2.28;;;;;;;;;;10456140;28;20600;-74
2022/10/25 20:09:32;;;;;;;1.98;1.88;;;;;;;;;;10462396;28;20589;-74
2022/10/25 20:14:36;;;;;;;3.00;1.70;;;;;;;;;;10463324;28;20597;-74
2022/10/25 20:19:37;;;;;;;1.90;1.80;;;;;;;;;;10465361;28;20278;-74
2022/10/25 20:24:38;;;;;;;1.88;1.77;;;;;;;;;;10465911;28;20183;-74
2022/10/25 20:29:39;;;;;;;2.13;2.00;;;;;;;;;;10465989;28;20279;-74
2022/10/25 20:34:40;;;;;;;3.63;2.20;;;;;;;;;;10450379;28;20229;-74
2022/10/25 20:39:41;;;;;;;2.00;1.90;;;;;;;;;;10464942;28;20229;-75
2022/10/25 20:44:43;;;;;;;1.98;1.85;;;;;;;;;;10464159;28;20749;-74
2022/10/25 20:49:44;;;;;;;1.83;1.60;;;;;;;;;;10466213;28;20272;-74
2022/10/25 20:54:45;;;;;;;2.88;2.05;;;;;;;;;;10469446;28;20246;-74
2022/10/25 20:59:48;;;;;;;1.73;1.63;;;;;;;;;;10462492;28;20178;-74
2022/10/25 21:04:49;;;;;;;2.13;1.80;;;;;;;;;;10458293;28;20222;-74
2022/10/25 21:09:50;;;;;;;4.50;3.05;;;;;;;;;;10465146;28;20926;-75
2022/10/25 21:14:51;;;;;;;5.05;3.70;;;;;;;;;;10460508;28;20207;-74
2022/10/25 21:19:52;;;;;;;2.50;2.40;;;;;;;;;;10457729;28;20190;-74
2022/10/25 21:24:53;;;;;;;1.83;1.73;;;;;;;;;;10459757;28;20301;-74
2022/10/25 21:29:55;;;;;;;2.10;2.00;;;;;;;;;;10460860;28;20187;-74
2022/10/25 21:34:56;;;;;;;1.65;1.55;;;;;;;;;;10459303;28;20222;-75
2022/10/25 21:39:57;;;;;;;2.10;1.90;;;;;;;;;;10461082;28;21038;-74
2022/10/25 21:44:58;;;;;;;1.85;1.75;;;;;;;;;;10462913;28;20225;-74
2022/10/25 21:49:59;;;;;;;2.08;1.80;;;;;;;;;;10463517;28;20190;-74
2022/10/25 21:55:00;;;;;;;2.25;2.05;;;;;;;;;;10461907;28;20293;-74
2022/10/25 22:00:01;;;;;;;1.98;1.85;;;;;;;;;;10459632;28;20187;-73
2022/10/25 22:05:13;;;;;;;3.55;2.05;;;;;;;;;;10459181;28;20219;-74
2022/10/25 22:10:14;;;;;;;2.10;2.00;;;;;;;;;;10458920;28;20266;-74
2022/10/25 22:15:16;;;;;;;3.50;2.45;;;;;;;;;;10459744;28;20210;-74
2022/10/25 22:20:17;;;;;;;3.22;2.92;;;;;;;;;;10462095;28;20201;-73
2022/10/25 22:25:18;;;;;;;2.50;2.30;;;;;;;;;;10461601;28;20189;-73
2022/10/25 22:30:19;;;;;;;5.70;2.22;;;;;;;;;;10460558;28;20236;-74
2022/10/25 22:35:20;;;;;;;2.08;1.98;;;;;;;;;;10458820;28;20220;-75
2022/10/25 22:40:21;;;;;;;1.35;1.35;;;;;;;;;;10464301;28;20178;-75
2022/10/25 22:45:22;;;;;;;3.97;2.22;;;;;;;;;;10459859;28;20348;-74
2022/10/25 22:50:23;;;;;;;4.15;1.65;;;;;;;;;;10460302;28;20638;-74
2022/10/25 22:55:24;;;;;;;1.70;1.60;;;;;;;;;;10457391;28;20258;-74
2022/10/25 23:00:25;;;;;;;1.88;1.50;;;;;;;;;;10456956;28;20839;-74
2022/10/25 23:05:26;;;;;;;2.35;2.08;;;;;;;;;;10461761;28;20191;-74
2022/10/25 23:10:27;;;;;;;2.03;1.92;;;;;;;;;;10460017;28;20194;-75
2022/10/25 23:15:29;;;;;;;2.45;1.88;;;;;;;;;;10462089;28;20293;-74
2022/10/25 23:20:30;;;;;;;1.70;1.60;;;;;;;;;;10450798;28;20680;-75
2022/10/25 23:25:32;;;;;;;1.83;1.48;;;;;;;;;;10463023;28;20195;-74
2022/10/25 23:30:36;;;;;;;2.25;2.15;;;;;;;;;;10464357;28;20214;-74
2022/10/25 23:35:39;;;;;;;1.92;1.85;;;;;;;;;;10465157;28;20221;-75
2022/10/25 23:40:40;;;;;;;3.38;2.45;;;;;;;;;;10468226;28;20698;-74
2022/10/25 23:45:41;;;;;;;5.88;2.50;;;;;;;;;;10466919;28;20718;-74
2022/10/25 23:50:42;;;;;;;1.80;1.70;;;;;;;;;;10467531;28;20946;-74
2022/10/25 23:55:43;;;;;;;5.85;2.00;;;;;;;;;;10464763;28;20201;-73
